createdAt,value
2018-04-06T00:00:50.125Z,0.00
2018-04-06T00:01:50.305Z,0.00
2018-04-06T00:02:50.716Z,0.00
2018-04-06T00:03:50.649Z,0.00
2018-04-06T00:04:50.813Z,0.00
2018-04-06T00:05:50.979Z,0.00
2018-04-06T00:06:51.153Z,0.00
2018-04-06T00:07:51.331Z,0.00
2018-04-06T00:08:51.510Z,0.00
2018-04-06T00:09:51.676Z,0.00
2018-04-06T00:10:51.853Z,0.00
2018-04-06T00:11:52.034Z,0.00
2018-04-06T00:12:52.208Z,0.00
2018-04-06T00:13:52.384Z,0.00
2018-04-06T00:14:52.557Z,0.00
2018-04-06T00:15:52.723Z,0.00
2018-04-06T00:16:52.903Z,0.00
2018-04-06T00:17:53.073Z,0.00
2018-04-06T00:18:53.242Z,0.00
2018-04-06T00:19:53.422Z,0.00
2018-04-06T00:20:53.607Z,0.00
2018-04-06T00:21:53.768Z,0.00
2018-04-06T00:22:53.944Z,0.00
2018-04-06T00:23:54.110Z,0.00
2018-04-06T00:24:54.283Z,0.00
2018-04-06T00:25:54.463Z,0.00
2018-04-06T00:26:54.639Z,0.00
2018-04-06T00:27:54.810Z,0.00
2018-04-06T00:28:54.987Z,0.00
2018-04-06T00:29:55.153Z,0.00
2018-04-06T00:30:55.327Z,0.00
2018-04-06T00:31:55.501Z,0.00
2018-04-06T00:32:55.684Z,0.00
2018-04-06T00:33:55.849Z,0.00
2018-04-06T00:34:56.024Z,0.00
2018-04-06T00:35:56.200Z,0.00
2018-04-06T00:36:56.372Z,0.00
2018-04-06T00:37:56.550Z,0.00
2018-04-06T00:38:56.723Z,0.00
2018-04-06T00:39:56.897Z,0.00
2018-04-06T00:40:57.075Z,0.00
2018-04-06T00:41:57.301Z,0.00
2018-04-06T00:42:57.413Z,0.00
2018-04-06T00:43:57.586Z,0.00
2018-04-06T00:44:57.761Z,0.00
2018-04-06T00:45:57.936Z,0.00
2018-04-06T00:46:58.114Z,0.00
2018-04-06T00:47:58.286Z,0.00
2018-04-06T00:48:58.467Z,0.00
2018-04-06T00:49:58.639Z,0.00
2018-04-06T00:50:58.816Z,0.00
2018-04-06T00:51:58.988Z,0.00
2018-04-06T00:52:59.168Z,0.00
2018-04-06T00:53:59.343Z,0.00
2018-04-06T00:54:59.516Z,0.00
2018-04-06T00:55:59.698Z,0.00
2018-04-06T00:56:59.871Z,0.00
2018-04-06T00:58:00.054Z,0.00
2018-04-06T00:59:00.222Z,0.00
2018-04-06T01:00:00.390Z,0.00
2018-04-06T01:01:00.569Z,0.00
2018-04-06T01:02:00.742Z,0.00
2018-04-06T01:03:00.919Z,0.00
2018-04-06T01:04:01.082Z,0.00
2018-04-06T01:05:01.257Z,0.00
2018-04-06T01:06:01.436Z,0.00
2018-04-06T01:07:01.609Z,0.00
2018-04-06T01:08:01.779Z,0.00
2018-04-06T01:09:01.939Z,0.00
2018-04-06T01:10:02.115Z,0.00
2018-04-06T01:11:02.290Z,0.00
2018-04-06T01:12:02.464Z,0.00
2018-04-06T01:13:02.632Z,0.00
2018-04-06T01:14:02.816Z,0.00
2018-04-06T01:15:02.981Z,0.00
2018-04-06T01:16:03.152Z,0.00
2018-04-06T01:17:03.329Z,0.00
2018-04-06T01:18:03.501Z,0.00
2018-04-06T01:19:03.675Z,0.00
2018-04-06T01:20:03.849Z,0.00
2018-04-06T01:21:04.024Z,0.00
2018-04-06T01:22:04.210Z,0.00
2018-04-06T01:23:04.375Z,0.00
2018-04-06T01:24:04.552Z,0.00
2018-04-06T01:25:04.736Z,0.00
2018-04-06T01:26:05.146Z,0.00
2018-04-06T01:27:05.079Z,0.00
2018-04-06T01:28:05.244Z,0.00
2018-04-06T01:29:05.432Z,0.00
2018-04-06T01:30:05.593Z,0.00
2018-04-06T01:31:05.767Z,0.00
2018-04-06T01:32:05.940Z,0.00
2018-04-06T01:33:06.118Z,0.00
2018-04-06T01:34:06.295Z,0.00
2018-04-06T01:35:06.470Z,0.00
2018-04-06T01:36:06.911Z,0.00
2018-04-06T01:37:06.813Z,0.00
2018-04-06T01:38:06.986Z,0.00
2018-04-06T01:39:07.165Z,0.00
2018-04-06T01:40:07.332Z,0.00
2018-04-06T01:41:07.504Z,0.00
2018-04-06T01:42:07.676Z,0.00
2018-04-06T01:43:07.857Z,0.00
2018-04-06T01:44:08.029Z,0.00
2018-04-06T01:45:08.209Z,0.00
2018-04-06T01:46:08.614Z,0.00
2018-04-06T01:47:08.547Z,0.00
2018-04-06T01:48:08.723Z,0.00
2018-04-06T01:49:08.894Z,0.00
2018-04-06T01:50:09.069Z,0.00
2018-04-06T01:51:09.244Z,0.00
2018-04-06T01:52:09.417Z,0.00
2018-04-06T01:53:09.596Z,0.00
2018-04-06T01:54:09.775Z,0.00
2018-04-06T01:55:09.935Z,0.00
2018-04-06T01:56:10.121Z,0.00
2018-04-06T01:57:10.278Z,0.00
2018-04-06T01:58:10.455Z,0.00
2018-04-06T01:59:10.637Z,0.00
2018-04-06T02:00:10.808Z,0.00
2018-04-06T02:01:10.979Z,0.00
2018-04-06T02:02:11.160Z,0.00
2018-04-06T02:03:11.328Z,0.00
2018-04-06T02:04:11.497Z,0.00
2018-04-06T02:05:11.674Z,0.00
2018-04-06T02:06:11.844Z,0.00
2018-04-06T02:07:12.018Z,0.00
2018-04-06T02:08:12.192Z,0.00
2018-04-06T02:10:12.531Z,0.00
2018-04-06T02:11:12.704Z,0.00
2018-04-06T02:12:12.877Z,0.00
2018-04-06T02:13:13.051Z,0.00
2018-04-06T02:14:13.225Z,0.00
2018-04-06T02:15:13.402Z,0.00
2018-04-06T02:16:13.579Z,0.00
2018-04-06T02:17:13.745Z,0.00
2018-04-06T02:18:13.941Z,0.00
2018-04-06T02:19:14.129Z,0.00
2018-04-06T02:20:14.267Z,0.00
2018-04-06T02:21:14.437Z,0.00
2018-04-06T02:22:14.622Z,0.00
2018-04-06T02:23:14.790Z,0.00
2018-04-06T02:24:14.958Z,0.00
2018-04-06T02:25:15.130Z,0.00
2018-04-06T02:26:15.307Z,0.00
2018-04-06T02:27:15.478Z,0.00
2018-04-06T02:28:15.649Z,0.00
2018-04-06T02:29:15.827Z,0.00
2018-04-06T02:30:15.996Z,0.00
2018-04-06T02:31:16.159Z,0.00
2018-04-06T02:32:16.351Z,0.00
2018-04-06T02:33:16.519Z,0.00
2018-04-06T02:34:16.690Z,0.00
2018-04-06T02:35:16.861Z,0.00
2018-04-06T02:36:17.034Z,0.00
2018-04-06T02:37:17.214Z,0.00
2018-04-06T02:38:17.393Z,0.00
2018-04-06T02:39:17.556Z,0.00
2018-04-06T02:40:17.731Z,0.00
2018-04-06T02:41:17.903Z,0.00
2018-04-06T02:42:18.077Z,0.00
2018-04-06T02:43:18.247Z,0.00
2018-04-06T02:44:18.429Z,0.00
2018-04-06T02:45:18.598Z,0.00
2018-04-06T02:46:18.772Z,0.00
2018-04-06T02:47:18.944Z,0.00
2018-04-06T02:48:19.121Z,0.00
2018-04-06T02:49:19.293Z,0.00
2018-04-06T02:50:19.476Z,0.00
2018-04-06T02:51:19.639Z,0.00
2018-04-06T02:52:19.814Z,0.00
2018-04-06T02:53:19.989Z,0.00
2018-04-06T02:54:20.167Z,0.00
2018-04-06T02:55:20.356Z,0.00
2018-04-06T02:56:20.505Z,0.00
2018-04-06T02:57:20.682Z,0.00
2018-04-06T02:58:20.862Z,0.00
2018-04-06T02:59:21.029Z,0.00
2018-04-06T03:00:21.205Z,0.00
2018-04-06T03:01:21.390Z,0.00
2018-04-06T03:02:21.563Z,0.00
2018-04-06T03:03:21.724Z,0.00
2018-04-06T03:04:21.893Z,0.00
2018-04-06T03:05:22.070Z,0.00
2018-04-06T03:06:22.243Z,0.00
2018-04-06T03:07:22.418Z,0.00
2018-04-06T03:08:22.591Z,0.00
2018-04-06T03:09:22.773Z,0.00
2018-04-06T03:10:22.937Z,0.00
2018-04-06T03:11:23.113Z,0.00
2018-04-06T03:12:23.286Z,0.00
2018-04-06T03:13:23.465Z,0.00
2018-04-06T03:14:23.647Z,0.00
2018-04-06T03:15:23.809Z,0.00
2018-04-06T03:16:23.982Z,0.00
2018-04-06T03:17:24.156Z,0.00
2018-04-06T03:18:24.333Z,0.00
2018-04-06T03:19:24.503Z,0.00
2018-04-06T03:20:24.677Z,0.00
2018-04-06T03:21:24.849Z,0.00
2018-04-06T03:22:25.267Z,0.00
2018-04-06T03:23:25.188Z,0.00
2018-04-06T03:24:25.408Z,0.00
2018-04-06T03:25:25.539Z,0.00
2018-04-06T03:26:25.717Z,0.00
2018-04-06T03:27:25.883Z,0.00
2018-04-06T03:28:26.054Z,0.00
2018-04-06T03:29:26.229Z,0.00
2018-04-06T03:30:26.401Z,0.00
2018-04-06T03:31:26.573Z,0.00
2018-04-06T03:32:26.748Z,0.00
2018-04-06T03:33:26.919Z,0.00
2018-04-06T03:34:27.093Z,0.00
2018-04-06T03:35:27.273Z,0.00
2018-04-06T03:36:27.443Z,0.00
2018-04-06T03:37:27.622Z,0.00
2018-04-06T03:38:27.791Z,0.00
2018-04-06T03:39:27.966Z,0.00
2018-04-06T03:40:28.135Z,0.00
2018-04-06T03:41:28.313Z,0.00
2018-04-06T03:42:28.486Z,0.00
2018-04-06T03:43:28.660Z,0.00
2018-04-06T03:44:28.835Z,0.00
2018-04-06T03:45:29.007Z,0.00
2018-04-06T03:46:29.183Z,0.00
2018-04-06T03:47:29.356Z,0.00
2018-04-06T03:48:29.530Z,0.00
2018-04-06T03:49:29.704Z,0.00
2018-04-06T03:50:29.876Z,0.00
2018-04-06T03:51:30.046Z,0.00
2018-04-06T03:52:30.225Z,0.00
2018-04-06T03:53:30.394Z,0.00
2018-04-06T03:54:30.567Z,0.00
2018-04-06T03:55:30.747Z,0.00
2018-04-06T03:56:30.912Z,0.00
2018-04-06T03:57:31.089Z,0.00
2018-04-06T03:58:31.253Z,0.00
2018-04-06T03:59:31.446Z,0.00
2018-04-06T04:00:31.610Z,0.00
2018-04-06T04:01:31.780Z,0.00
2018-04-06T04:02:31.954Z,0.00
2018-04-06T04:03:32.124Z,0.00
2018-04-06T04:04:32.301Z,0.00
2018-04-06T04:05:32.477Z,0.00
2018-04-06T04:06:32.643Z,0.00
2018-04-06T04:07:32.818Z,0.00
2018-04-06T04:08:32.988Z,0.00
2018-04-06T04:09:33.165Z,4.00
2018-04-06T04:10:33.336Z,4.00
2018-04-06T04:11:33.513Z,0.00
2018-04-06T04:12:33.681Z,4.00
2018-04-06T04:13:33.855Z,4.00
2018-04-06T04:14:34.028Z,4.00
2018-04-06T04:15:34.203Z,4.00
2018-04-06T04:16:34.376Z,4.00
2018-04-06T04:17:34.544Z,4.00
2018-04-06T04:19:34.885Z,8.00
2018-04-06T04:20:35.064Z,12.00
2018-04-06T04:21:35.233Z,8.00
2018-04-06T04:22:35.403Z,12.00
2018-04-06T04:23:35.585Z,16.00
2018-04-06T04:24:35.749Z,20.00
2018-04-06T04:25:35.925Z,20.00
2018-04-06T04:26:36.095Z,24.00
2018-04-06T04:27:36.268Z,28.00
2018-04-06T04:28:36.816Z,32.00
2018-04-06T04:29:36.612Z,40.00
2018-04-06T04:30:36.783Z,44.00
2018-04-06T04:31:36.957Z,52.00
2018-04-06T04:32:37.132Z,56.00
2018-04-06T04:33:37.311Z,64.00
2018-04-06T04:34:37.491Z,80.00
2018-04-06T04:35:37.659Z,96.00
2018-04-06T04:36:37.833Z,108.00
2018-04-06T04:37:38.004Z,120.00
2018-04-06T04:38:38.179Z,136.00
2018-04-06T04:39:38.347Z,148.00
2018-04-06T04:40:38.517Z,164.00
2018-04-06T04:41:39.067Z,184.00
2018-04-06T04:42:38.866Z,208.00
2018-04-06T04:43:39.034Z,228.00
2018-04-06T04:44:39.208Z,252.00
2018-04-06T04:45:39.382Z,272.00
2018-04-06T04:46:39.582Z,296.00
2018-04-06T04:47:39.729Z,312.00
2018-04-06T04:48:39.898Z,328.00
2018-04-06T04:49:40.069Z,356.00
2018-04-06T04:50:40.240Z,408.00
2018-04-06T04:52:40.582Z,500.00
2018-04-06T04:53:40.751Z,536.00
2018-04-06T04:54:40.930Z,580.00
2018-04-06T04:55:41.100Z,640.00
2018-04-06T04:56:41.269Z,684.00
2018-04-06T04:57:41.438Z,728.00
2018-04-06T04:58:41.611Z,776.00
2018-04-06T04:59:41.787Z,836.00
2018-04-06T05:00:41.963Z,908.00
2018-04-06T05:01:42.148Z,976.00
2018-04-06T05:02:42.329Z,1040.00
2018-04-06T05:03:42.482Z,1104.00
2018-04-06T05:04:42.669Z,1180.00
2018-04-06T05:05:42.822Z,1268.00
2018-04-06T05:06:42.999Z,1340.00
2018-04-06T05:07:43.210Z,1380.00
2018-04-06T05:08:43.349Z,1432.00
2018-04-06T05:09:43.515Z,1528.00
2018-04-06T05:10:43.685Z,1616.00
2018-04-06T05:11:43.857Z,1684.00
2018-04-06T05:12:44.040Z,1764.00
2018-04-06T05:13:44.227Z,1860.00
2018-04-06T05:14:44.362Z,1980.00
2018-04-06T05:15:44.531Z,2060.00
2018-04-06T05:16:44.704Z,2052.00
2018-04-06T05:17:44.876Z,1980.00
2018-04-06T05:18:45.051Z,2000.00
2018-04-06T05:19:45.232Z,2108.00
2018-04-06T05:20:45.399Z,2220.00
2018-04-06T05:21:45.577Z,2360.00
2018-04-06T05:22:45.737Z,2468.00
2018-04-06T05:23:45.906Z,2680.00
2018-04-06T05:24:46.345Z,2944.00
2018-04-06T05:25:46.255Z,2960.00
2018-04-06T05:26:46.423Z,3068.00
2018-04-06T05:27:46.598Z,3304.00
2018-04-06T05:28:46.770Z,3256.00
2018-04-06T05:29:46.947Z,3236.00
2018-04-06T05:30:47.113Z,3476.00
2018-04-06T05:31:47.292Z,3804.00
2018-04-06T05:32:47.466Z,3844.00
2018-04-06T05:33:47.631Z,3804.00
2018-04-06T05:34:48.063Z,3872.00
2018-04-06T05:35:47.983Z,3876.00
2018-04-06T05:36:48.151Z,3864.00
2018-04-06T05:37:48.342Z,3928.00
2018-04-06T05:38:48.578Z,3996.00
2018-04-06T05:39:48.672Z,4144.00
2018-04-06T05:40:48.854Z,4416.00
2018-04-06T05:41:49.034Z,4564.00
2018-04-06T05:42:49.194Z,4748.00
2018-04-06T05:43:49.377Z,5208.00
2018-04-06T05:44:49.532Z,6372.00
2018-04-06T05:45:49.699Z,9860.00
2018-04-06T05:46:49.875Z,18784.00
2018-04-06T05:47:50.045Z,25216.00
2018-04-06T05:48:50.221Z,29472.00
2018-04-06T05:49:50.415Z,28672.00
2018-04-06T05:50:50.576Z,26752.00
2018-04-06T05:51:50.744Z,26688.00
2018-04-06T05:52:50.914Z,26080.00
2018-04-06T05:53:51.090Z,25920.00
2018-04-06T05:54:51.264Z,26368.00
2018-04-06T05:55:51.438Z,26688.00
2018-04-06T05:56:51.617Z,26752.00
2018-04-06T05:57:51.791Z,26624.00
2018-04-06T05:58:51.974Z,25792.00
2018-04-06T05:59:52.153Z,25856.00
2018-04-06T06:00:52.327Z,25952.00
2018-04-06T06:01:52.511Z,25792.00
2018-04-06T06:02:52.685Z,26592.00
2018-04-06T06:03:52.862Z,26560.00
2018-04-06T06:04:53.042Z,26528.00
2018-04-06T06:05:53.217Z,28384.00
2018-04-06T06:06:53.422Z,28192.00
2018-04-06T06:07:53.564Z,28512.00
2018-04-06T06:08:53.755Z,29184.00
2018-04-06T06:09:53.958Z,29088.00
2018-04-06T06:10:54.102Z,28960.00
2018-04-06T06:11:54.278Z,28768.00
2018-04-06T06:12:54.453Z,29120.00
2018-04-06T06:13:54.633Z,30304.00
2018-04-06T06:14:55.071Z,31104.00
2018-04-06T06:15:55.005Z,30464.00
2018-04-06T06:16:55.184Z,31296.00
2018-04-06T06:17:55.362Z,30720.00
2018-04-06T06:18:55.541Z,30144.00
2018-04-06T06:19:55.723Z,30208.00
2018-04-06T06:20:55.938Z,30816.00
2018-04-06T06:21:56.110Z,30816.00
2018-04-06T06:22:56.287Z,29088.00
2018-04-06T06:23:56.461Z,27552.00
2018-04-06T06:25:56.828Z,30560.00
2018-04-06T06:26:57.010Z,32224.00
2018-04-06T06:27:57.191Z,32352.00
2018-04-06T06:28:57.370Z,31392.00
2018-04-06T06:29:57.549Z,30528.00
2018-04-06T06:30:57.733Z,30688.00
2018-04-06T06:31:58.293Z,31232.00
2018-04-06T06:32:58.089Z,30656.00
2018-04-06T06:33:58.268Z,31456.00
2018-04-06T06:34:58.469Z,33472.00
2018-04-06T06:35:58.632Z,34272.00
2018-04-06T06:36:58.812Z,33280.00
2018-04-06T06:37:58.992Z,31424.00
2018-04-06T06:38:59.228Z,31136.00
2018-04-06T06:39:59.358Z,29440.00
2018-04-06T06:40:59.539Z,29888.00
2018-04-06T06:41:59.724Z,33408.00
2018-04-06T06:42:59.927Z,34016.00
2018-04-06T06:44:00.093Z,32032.00
2018-04-06T06:45:00.272Z,31008.00
2018-04-06T06:46:00.430Z,31808.00
2018-04-06T06:47:00.621Z,31712.00
2018-04-06T06:48:00.798Z,30816.00
2018-04-06T06:49:00.971Z,30144.00
2018-04-06T06:50:01.185Z,28928.00
2018-04-06T06:51:01.335Z,27808.00
2018-04-06T06:52:01.517Z,27552.00
2018-04-06T06:53:01.700Z,27840.00
2018-04-06T06:54:01.896Z,28352.00
2018-04-06T06:55:02.069Z,28928.00
2018-04-06T06:56:02.256Z,28096.00
2018-04-06T06:57:02.437Z,27328.00
2018-04-06T06:58:02.620Z,27200.00
2018-04-06T06:59:02.822Z,26912.00
2018-04-06T07:00:03.046Z,25664.00
2018-04-06T07:01:03.202Z,21856.00
2018-04-06T07:02:03.679Z,24480.00
2018-04-06T07:03:03.544Z,25568.00
2018-04-06T07:04:03.731Z,24416.00
2018-04-06T07:05:03.901Z,24640.00
2018-04-06T07:06:04.380Z,25504.00
2018-04-06T07:07:04.255Z,25408.00
2018-04-06T07:08:04.440Z,24448.00
2018-04-06T07:09:04.644Z,23488.00
2018-04-06T07:10:04.801Z,24096.00
2018-04-06T07:11:04.979Z,21824.00
2018-04-06T07:12:05.160Z,20736.00
2018-04-06T07:13:05.347Z,22496.00
2018-04-06T07:14:05.564Z,21344.00
2018-04-06T07:15:05.718Z,22016.00
2018-04-06T07:16:05.898Z,21824.00
2018-04-06T07:17:06.097Z,20864.00
2018-04-06T07:18:06.282Z,21216.00
2018-04-06T07:19:06.452Z,21312.00
2018-04-06T07:20:06.627Z,21088.00
2018-04-06T07:21:06.813Z,21376.00
2018-04-06T07:22:06.986Z,21312.00
2018-04-06T07:23:07.183Z,20960.00
2018-04-06T07:24:07.354Z,20960.00
2018-04-06T07:25:07.531Z,20448.00
2018-04-06T07:26:07.737Z,20032.00
2018-04-06T07:27:07.883Z,19456.00
2018-04-06T07:28:08.059Z,19008.00
2018-04-06T07:29:08.244Z,18496.00
2018-04-06T07:30:08.427Z,17920.00
2018-04-06T07:31:08.608Z,17472.00
2018-04-06T07:32:08.766Z,17184.00
2018-04-06T07:33:08.948Z,17056.00
2018-04-06T07:34:09.156Z,16896.00
2018-04-06T07:35:09.319Z,16768.00
2018-04-06T07:36:09.510Z,16416.00
2018-04-06T07:37:09.677Z,15872.00
2018-04-06T07:38:09.879Z,15136.00
2018-04-06T07:39:10.036Z,14560.00
2018-04-06T07:40:10.226Z,14212.00
2018-04-06T07:41:10.403Z,14116.00
2018-04-06T07:42:10.586Z,13776.00
2018-04-06T07:43:11.696Z,13280.00
2018-04-06T07:44:11.003Z,12988.00
2018-04-06T07:45:11.129Z,12836.00
2018-04-06T07:46:11.316Z,12932.00
2018-04-06T07:47:11.486Z,12740.00
2018-04-06T07:48:11.700Z,12276.00
2018-04-06T07:49:11.853Z,11952.00
2018-04-06T07:50:12.028Z,11884.00
2018-04-06T07:51:12.189Z,11584.00
2018-04-06T07:52:12.354Z,11332.00
2018-04-06T07:54:12.740Z,11096.00
2018-04-06T07:55:12.898Z,10764.00
2018-04-06T07:56:13.109Z,10272.00
2018-04-06T07:57:13.274Z,9964.00
2018-04-06T07:58:13.405Z,9888.00
2018-04-06T07:59:13.595Z,9840.00
2018-04-06T08:00:13.833Z,9788.00
2018-04-06T08:01:13.982Z,9708.00
2018-04-06T08:02:14.205Z,9664.00
2018-04-06T08:03:14.318Z,9656.00
2018-04-06T08:04:14.491Z,9612.00
2018-04-06T08:05:14.670Z,9580.00
2018-04-06T08:06:14.886Z,9564.00
2018-04-06T08:07:15.003Z,9516.00
2018-04-06T08:08:15.209Z,9476.00
2018-04-06T08:09:15.365Z,9420.00
2018-04-06T08:10:15.630Z,9400.00
2018-04-06T08:11:15.761Z,9400.00
2018-04-06T08:12:15.908Z,9392.00
2018-04-06T08:13:16.106Z,9360.00
2018-04-06T08:14:16.261Z,9344.00
2018-04-06T08:15:16.470Z,9344.00
2018-04-06T08:16:16.615Z,9336.00
2018-04-06T08:17:16.790Z,9332.00
2018-04-06T08:18:16.997Z,9324.00
2018-04-06T08:19:17.183Z,9316.00
2018-04-06T08:20:17.323Z,9320.00
2018-04-06T08:21:17.488Z,9308.00
2018-04-06T08:22:17.720Z,9320.00
2018-04-06T08:23:17.832Z,9328.00
2018-04-06T08:24:17.996Z,9316.00
2018-04-06T08:25:18.164Z,9300.00
2018-04-06T08:26:18.631Z,9300.00
2018-04-06T08:27:18.517Z,9320.00
2018-04-06T08:28:18.709Z,9296.00
2018-04-06T08:29:18.866Z,9272.00
2018-04-06T08:30:19.058Z,9260.00
2018-04-06T08:31:19.214Z,9276.00
2018-04-06T08:32:19.379Z,9288.00
2018-04-06T08:33:19.553Z,9320.00
2018-04-06T08:34:19.821Z,9320.00
2018-04-06T08:35:19.894Z,9312.00
2018-04-06T08:36:20.050Z,9336.00
2018-04-06T08:37:20.229Z,9352.00
2018-04-06T08:38:20.411Z,9336.00
2018-04-06T08:39:20.734Z,9328.00
2018-04-06T08:40:20.844Z,9340.00
2018-04-06T08:41:20.983Z,9300.00
2018-04-06T08:42:21.173Z,9284.00
2018-04-06T08:43:21.320Z,9272.00
2018-04-06T08:44:21.539Z,9276.00
2018-04-06T08:45:21.689Z,9280.00
2018-04-06T08:46:22.926Z,9264.00
2018-04-06T08:47:22.029Z,9272.00
2018-04-06T08:48:22.185Z,9252.00
2018-04-06T08:49:22.355Z,9268.00
2018-04-06T08:50:22.563Z,9256.00
2018-04-06T08:51:23.074Z,9264.00
2018-04-06T08:52:22.878Z,9252.00
2018-04-06T08:53:23.041Z,9236.00
2018-04-06T08:54:23.216Z,9228.00
2018-04-06T08:55:23.557Z,9232.00
2018-04-06T08:56:23.640Z,9224.00
2018-04-06T08:57:23.766Z,9212.00
2018-04-06T08:58:23.954Z,9216.00
2018-04-06T08:59:24.106Z,9176.00
2018-04-06T09:00:24.584Z,9164.00
2018-04-06T09:01:24.458Z,9148.00
2018-04-06T09:02:24.636Z,9144.00
2018-04-06T09:03:24.823Z,9116.00
2018-04-06T09:04:25.014Z,9096.00
2018-04-06T09:05:25.196Z,9096.00
2018-04-06T09:06:25.339Z,9100.00
2018-04-06T09:07:25.542Z,9068.00
2018-04-06T09:08:25.705Z,9080.00
2018-04-06T09:09:25.860Z,9052.00
2018-04-06T09:10:26.028Z,9032.00
2018-04-06T09:11:26.206Z,9064.00
2018-04-06T09:12:26.465Z,9084.00
2018-04-06T09:13:26.630Z,9064.00
2018-04-06T09:14:26.768Z,9068.00
2018-04-06T09:15:26.958Z,9092.00
2018-04-06T09:16:27.121Z,9096.00
2018-04-06T09:17:27.320Z,9088.00
2018-04-06T09:18:27.462Z,9100.00
2018-04-06T09:19:27.642Z,9096.00
2018-04-06T09:20:27.825Z,9088.00
2018-04-06T09:21:28.009Z,9080.00
2018-04-06T09:22:28.198Z,9080.00
2018-04-06T09:23:28.453Z,9084.00
2018-04-06T09:24:28.561Z,9092.00
2018-04-06T09:25:28.766Z,9124.00
2018-04-06T09:26:28.936Z,9164.00
2018-04-06T09:27:29.138Z,9144.00
2018-04-06T09:28:29.274Z,9220.00
2018-04-06T09:29:29.487Z,9184.00
2018-04-06T09:30:29.649Z,9196.00
2018-04-06T09:31:29.846Z,9196.00
2018-04-06T09:32:30.031Z,9200.00
2018-04-06T09:33:30.154Z,9192.00
2018-04-06T09:34:30.330Z,9168.00
2018-04-06T09:35:30.520Z,9144.00
2018-04-06T09:36:30.673Z,9112.00
2018-04-06T09:37:31.116Z,9104.00
2018-04-06T09:38:31.048Z,9120.00
2018-04-06T09:39:31.273Z,9116.00
2018-04-06T09:40:31.449Z,9104.00
2018-04-06T09:41:31.599Z,9120.00
2018-04-06T09:42:31.751Z,9100.00
2018-04-06T09:43:31.920Z,9060.00
2018-04-06T09:44:32.133Z,9092.00
2018-04-06T09:45:32.309Z,9144.00
2018-04-06T09:46:32.458Z,9128.00
2018-04-06T09:47:32.912Z,9084.00
2018-04-06T09:48:32.793Z,9064.00
2018-04-06T09:49:32.999Z,9068.00
2018-04-06T09:50:33.125Z,9020.00
2018-04-06T09:51:33.313Z,8964.00
2018-04-06T09:52:33.529Z,8944.00
2018-04-06T09:53:33.709Z,8940.00
2018-04-06T09:54:33.884Z,8908.00
2018-04-06T09:55:34.075Z,8904.00
2018-04-06T09:56:34.251Z,8884.00
2018-04-06T09:57:34.433Z,8860.00
2018-04-06T09:58:34.616Z,8860.00
2018-04-06T09:59:34.808Z,8844.00
2018-04-06T10:00:34.960Z,8816.00
2018-04-06T10:01:35.148Z,8820.00
2018-04-06T10:02:35.355Z,8800.00
2018-04-06T10:03:35.540Z,8764.00
2018-04-06T10:04:35.820Z,8736.00
2018-04-06T10:05:35.913Z,8688.00
2018-04-06T10:06:36.077Z,8668.00
2018-04-06T10:07:36.288Z,8664.00
2018-04-06T10:08:36.485Z,8636.00
2018-04-06T10:09:36.660Z,8652.00
2018-04-06T10:10:36.826Z,8872.00
2018-04-06T10:11:37.014Z,9200.00
2018-04-06T10:12:37.171Z,9260.00
2018-04-06T10:13:37.350Z,9292.00
2018-04-06T10:14:37.507Z,9540.00
2018-04-06T10:15:37.652Z,9856.00
2018-04-06T10:16:37.823Z,9716.00
2018-04-06T10:17:38.032Z,9204.00
2018-04-06T10:18:38.177Z,8764.00
2018-04-06T10:19:38.369Z,8516.00
2018-04-06T10:20:38.546Z,8384.00
2018-04-06T10:21:38.717Z,8316.00
2018-04-06T10:22:38.910Z,8296.00
2018-04-06T10:23:39.059Z,8300.00
2018-04-06T10:24:39.249Z,8216.00
2018-04-06T10:25:39.452Z,8152.00
2018-04-06T10:26:39.678Z,8120.00
2018-04-06T10:27:39.779Z,8084.00
2018-04-06T10:28:40.036Z,8024.00
2018-04-06T10:29:40.229Z,7992.00
2018-04-06T10:30:40.497Z,7936.00
2018-04-06T10:31:40.751Z,7892.00
2018-04-06T10:32:41.077Z,7860.00
2018-04-06T10:33:40.872Z,7856.00
2018-04-06T10:34:41.052Z,7804.00
2018-04-06T10:35:41.237Z,7788.00
2018-04-06T10:36:41.448Z,7784.00
2018-04-06T10:37:41.586Z,7736.00
2018-04-06T10:38:41.801Z,7712.00
2018-04-06T10:39:41.925Z,7684.00
2018-04-06T10:40:42.126Z,7700.00
2018-04-06T10:41:42.345Z,7660.00
2018-04-06T10:42:42.500Z,7620.00
2018-04-06T10:43:42.688Z,7592.00
2018-04-06T10:44:43.758Z,7584.00
2018-04-06T10:45:43.027Z,7532.00
2018-04-06T10:46:43.284Z,7456.00
2018-04-06T10:47:43.373Z,7440.00
2018-04-06T10:48:43.535Z,7420.00
2018-04-06T10:49:43.726Z,7356.00
2018-04-06T10:50:43.898Z,7360.00
2018-04-06T10:51:44.084Z,7372.00
2018-04-06T10:52:44.257Z,7416.00
2018-04-06T10:53:44.437Z,7360.00
2018-04-06T10:54:44.605Z,7456.00
2018-04-06T10:55:44.778Z,7288.00
2018-04-06T10:56:44.969Z,7260.00
2018-04-06T10:57:45.145Z,7268.00
2018-04-06T10:58:45.330Z,7228.00
2018-04-06T10:59:45.506Z,7188.00
2018-04-06T11:00:45.718Z,7160.00
2018-04-06T11:01:45.847Z,7160.00
2018-04-06T11:02:46.030Z,7120.00
2018-04-06T11:03:46.195Z,7076.00
2018-04-06T11:04:46.378Z,6948.00
2018-04-06T11:05:46.564Z,6872.00
2018-04-06T11:06:46.761Z,6820.00
2018-04-06T11:07:46.962Z,6740.00
2018-04-06T11:08:47.374Z,6684.00
2018-04-06T11:09:47.339Z,6656.00
2018-04-06T11:10:47.453Z,6604.00
2018-04-06T11:11:47.638Z,6556.00
2018-04-06T11:12:47.800Z,6528.00
2018-04-06T11:13:47.985Z,6472.00
2018-04-06T11:14:48.205Z,6468.00
2018-04-06T11:15:48.353Z,6380.00
2018-04-06T11:16:48.512Z,6344.00
2018-04-06T11:17:48.683Z,6284.00
2018-04-06T11:18:49.103Z,6252.00
2018-04-06T11:19:49.044Z,6200.00
2018-04-06T11:20:49.298Z,6140.00
2018-04-06T11:21:49.382Z,6080.00
2018-04-06T11:22:49.560Z,6092.00
2018-04-06T11:23:49.783Z,5960.00
2018-04-06T11:24:49.952Z,5940.00
2018-04-06T11:25:50.140Z,5844.00
2018-04-06T11:26:50.307Z,5804.00
2018-04-06T11:27:50.488Z,5764.00
2018-04-06T11:28:50.647Z,5684.00
2018-04-06T11:29:50.882Z,5640.00
2018-04-06T11:30:50.991Z,5680.00
2018-04-06T11:31:51.201Z,5552.00
2018-04-06T11:32:51.312Z,5484.00
2018-04-06T11:33:51.647Z,5416.00
2018-04-06T11:34:51.686Z,5420.00
2018-04-06T11:35:51.886Z,5392.00
2018-04-06T11:36:52.078Z,5356.00
2018-04-06T11:37:52.311Z,5468.00
2018-04-06T11:38:52.418Z,5076.00
2018-04-06T11:39:52.611Z,5004.00
2018-04-06T11:40:52.769Z,5180.00
2018-04-06T11:41:52.964Z,4836.00
2018-04-06T11:42:53.111Z,4832.00
2018-04-06T11:43:53.279Z,4812.00
2018-04-06T11:44:53.506Z,4848.00
2018-04-06T11:45:53.669Z,4772.00
2018-04-06T11:46:53.833Z,4748.00
2018-04-06T11:47:54.031Z,4732.00
2018-04-06T11:48:54.217Z,4716.00
2018-04-06T11:49:54.372Z,4668.00
2018-04-06T11:50:54.518Z,4636.00
2018-04-06T11:51:54.718Z,4660.00
2018-04-06T11:52:54.898Z,4656.00
2018-04-06T11:53:55.045Z,4672.00
2018-04-06T11:54:55.585Z,4632.00
2018-04-06T11:55:55.374Z,4664.00
2018-04-06T11:56:55.561Z,4664.00
2018-04-06T11:57:55.739Z,4712.00
2018-04-06T11:58:55.935Z,4616.00
2018-04-06T11:59:56.085Z,4660.00
2018-04-06T12:00:56.261Z,4620.00
2018-04-06T12:01:56.611Z,4664.00
2018-04-06T12:02:56.653Z,4604.00
2018-04-06T12:03:56.829Z,4596.00
2018-04-06T12:04:57.004Z,4580.00
2018-04-06T12:05:57.162Z,4572.00
2018-04-06T12:06:57.358Z,4584.00
2018-04-06T12:07:57.528Z,4592.00
2018-04-06T12:08:57.708Z,4584.00
2018-04-06T12:09:57.902Z,4592.00
2018-04-06T12:10:58.082Z,4616.00
2018-04-06T12:11:58.291Z,4604.00
2018-04-06T12:12:58.403Z,4616.00
2018-04-06T12:13:58.565Z,4616.00
2018-04-06T12:14:58.827Z,4644.00
2018-04-06T12:15:58.973Z,4608.00
2018-04-06T12:16:59.137Z,4596.00
2018-04-06T12:17:59.340Z,4604.00
2018-04-06T12:18:59.495Z,4600.00
2018-04-06T12:19:59.629Z,4628.00
2018-04-06T12:20:59.818Z,4596.00
2018-04-06T12:21:59.984Z,4608.00
2018-04-06T12:23:00.159Z,4604.00
2018-04-06T12:24:00.351Z,4628.00
2018-04-06T12:25:00.543Z,4628.00
2018-04-06T12:26:00.722Z,4612.00
2018-04-06T12:27:00.907Z,4640.00
2018-04-06T12:28:01.080Z,4552.00
2018-04-06T12:29:01.262Z,4600.00
2018-04-06T12:30:01.434Z,4624.00
2018-04-06T12:31:01.635Z,4608.00
2018-04-06T12:32:01.804Z,4628.00
2018-04-06T12:33:02.025Z,4632.00
2018-04-06T12:34:02.222Z,4652.00
2018-04-06T12:35:02.383Z,4784.00